Time;durP1;ratioP1;P1;durP2;ratioP2;P2;SDS_P1;SDS_P2;PMS_P1;PMS_P2;Temp;Humidity;BMP_temperature;BMP_pressure;BME280_temperature;BME280_humidity;BME280_pressure;Samples;Min_cycle;Max_cycle;Signal;HPM_P1;HPM_P2
2021/09/28 00:00:13;;;;;;;13.48;12.07;;;17.60;80.70;;;16.40;86.18;96472.53;4992756;28;20034;-63
2021/09/28 00:02:39;;;;;;;15.80;12.45;;;17.60;80.70;;;16.40;85.56;96481.31;4988947;28;20499;-63
2021/09/28 00:05:05;;;;;;;16.55;12.57;;;17.50;80.70;;;16.38;85.77;96475.41;4976386;28;20064;-63
2021/09/28 00:07:31;;;;;;;16.33;13.10;;;17.50;80.70;;;16.37;86.44;96481.75;4991476;28;20091;-64
2021/09/28 00:09:57;;;;;;;13.57;12.07;;;17.50;80.70;;;16.36;86.79;96479.31;5004601;28;20092;-63
2021/09/28 00:12:22;;;;;;;16.15;12.45;;;17.50;80.80;;;16.34;86.31;96484.84;5006017;28;20103;-63
2021/09/28 00:14:48;;;;;;;16.20;13.30;;;17.50;80.80;;;16.32;85.82;96489.56;5009763;28;20041;-63
2021/09/28 00:17:14;;;;;;;18.38;13.68;;;17.40;80.80;;;16.31;86.61;96492.41;4990766;28;20042;-64
2021/09/28 00:19:40;;;;;;;14.93;12.85;;;17.40;80.80;;;16.29;86.19;96486.47;5001016;28;20125;-64
2021/09/28 00:22:06;;;;;;;17.65;12.68;;;17.30;81.00;;;16.23;86.44;96486.31;4992281;28;20491;-63
2021/09/28 00:24:33;;;;;;;18.20;13.68;;;17.30;81.30;;;16.20;86.54;96477.97;5004605;28;20037;-63
2021/09/28 00:27:00;;;;;;;14.93;13.02;;;17.30;81.30;;;16.17;86.82;96481.06;5007060;28;20028;-63
2021/09/28 00:29:25;;;;;;;14.85;13.20;;;17.20;81.40;;;16.13;86.89;96490.50;4962010;28;20026;-63
2021/09/28 00:31:51;;;;;;;15.70;13.45;;;17.20;81.30;;;16.12;87.16;96488.88;5008230;28;20040;-63
2021/09/28 00:34:17;;;;;;;15.57;13.73;;;17.20;81.40;;;16.09;86.71;96486.66;5008073;28;20121;-64
2021/09/28 00:36:43;;;;;;;17.38;15.35;;;17.20;81.30;;;16.06;87.43;96500.31;5005974;28;20038;-63
2021/09/28 00:39:08;;;;;;;15.75;14.05;;;17.10;81.30;;;16.01;87.51;96492.19;5008764;28;20080;-63
2021/09/28 00:41:34;;;;;;;19.77;13.93;;;17.10;81.40;;;16.00;87.13;96493.22;5007506;28;20503;-64
2021/09/28 00:44:00;;;;;;;20.40;14.82;;;17.10;81.40;;;15.96;87.31;96489.38;4987977;28;20041;-64
2021/09/28 00:46:26;;;;;;;19.27;14.27;;;17.10;81.50;;;15.95;87.42;96483.25;4991173;28;20042;-63
2021/09/28 00:48:52;;;;;;;18.10;14.07;;;17.10;81.60;;;15.93;87.07;96494.06;4992062;28;20388;-63
2021/09/28 00:51:17;;;;;;;16.52;13.68;;;17.10;81.70;;;15.94;88.34;96500.19;4975053;28;20434;-64
2021/09/28 00:53:44;;;;;;;18.10;14.77;;;17.10;81.70;;;15.92;87.66;96495.09;4990779;28;20045;-63
2021/09/28 00:56:14;;;;;;;15.48;13.85;;;17.10;81.60;;;15.92;88.41;96500.41;4989356;28;20096;-64
2021/09/28 00:58:40;;;;;;;17.88;14.63;;;17.10;81.80;;;15.94;87.91;96502.84;5008907;28;20042;-63
2021/09/28 01:01:06;;;;;;;15.55;13.90;;;17.10;81.60;;;15.92;87.34;96495.09;4975603;28;20030;-64
2021/09/28 01:03:32;;;;;;;16.17;14.23;;;17.00;81.90;;;15.92;88.56;96495.09;4989914;28;20550;-64
2021/09/28 01:05:58;;;;;;;17.73;13.32;;;17.10;81.90;;;15.92;88.63;96489.78;4970625;28;20041;-64
2021/09/28 01:08:25;;;;;;;18.15;14.32;;;17.10;81.80;;;15.93;88.10;96496.72;4989878;28;20038;-64
2021/09/28 01:10:50;;;;;;;16.23;13.77;;;17.10;81.80;;;15.93;88.54;96496.72;4986312;28;20061;-64
2021/09/28 01:13:16;;;;;;;15.38;13.35;;;17.10;81.80;;;15.95;89.02;96501.81;4952380;28;20506;-64
2021/09/28 01:16:10;;;;;;;16.95;14.60;;;17.10;81.80;;;15.96;89.07;96500.78;5006618;28;20045;-64
2021/09/28 01:18:37;;;;;;;17.10;14.18;;;17.10;81.80;;;15.95;88.61;96501.00;4971035;28;20403;-64
2021/09/28 01:21:06;;;;;;;16.98;14.27;;;17.10;81.80;;;15.96;88.65;96499.97;4974399;28;20113;-64
2021/09/28 01:23:31;;;;;;;16.30;13.20;;;17.10;81.80;;;15.98;88.11;96497.91;4990769;28;20101;-64
2021/09/28 01:25:57;;;;;;;16.40;13.80;;;17.20;81.70;;;15.99;88.09;96495.06;5006982;28;20645;-64
2021/09/28 01:28:23;;;;;;;17.65;14.77;;;17.20;81.60;;;16.01;88.56;96498.31;5007572;28;20063;-64
2021/09/28 01:30:49;;;;;;;15.43;13.80;;;17.20;81.50;;;16.00;88.51;96501.16;4971283;28;20045;-64
2021/09/28 01:33:15;;;;;;;17.52;14.07;;;17.10;81.70;;;15.99;88.60;96499.53;5007401;28;20529;-64
2021/09/28 01:35:41;;;;;;;17.13;13.60;;;17.20;81.50;;;15.98;87.99;96498.72;4986514;28;20050;-64
2021/09/28 01:38:07;;;;;;;16.25;14.18;;;17.10;81.70;;;15.99;88.48;96504.84;4987045;28;20038;-64
2021/09/28 01:40:34;;;;;;;16.77;13.90;;;17.10;81.70;;;15.99;87.94;96504.84;5003463;28;20040;-64
2021/09/28 01:43:07;;;;;;;16.25;13.75;;;17.10;81.60;;;16.00;88.26;96501.16;4989282;28;20049;-64
2021/09/28 01:45:33;;;;;;;20.77;18.20;;;17.10;81.50;;;16.00;88.70;96504.63;4989070;28;20029;-64
2021/09/28 01:47:59;;;;;;;34.22;26.60;;;17.20;81.40;;;16.03;87.86;96498.09;4991919;28;20030;-64
2021/09/28 01:50:25;;;;;;;19.15;16.45;;;17.20;81.70;;;16.04;88.42;96507.69;4971424;28;20065;-63
2021/09/28 01:52:50;;;;;;;16.45;13.93;;;17.30;81.40;;;16.03;87.72;96501.56;5006499;28;20042;-64
2021/09/28 01:55:16;;;;;;;16.35;13.73;;;17.30;81.30;;;16.04;88.27;96505.03;5005308;28;20423;-64
2021/09/28 01:57:42;;;;;;;16.48;14.40;;;17.30;81.20;;;16.01;88.18;96505.44;4990137;28;20523;-63
2021/09/28 02:00:08;;;;;;;17.85;14.70;;;17.10;81.20;;;15.98;88.35;96504.03;5006599;28;20525;-63
2021/09/28 02:02:34;;;;;;;18.92;15.10;;;17.10;81.30;;;15.97;87.74;96501.59;4988327;28;20038;-63
2021/09/28 02:05:00;;;;;;;22.00;14.88;;;17.20;81.30;;;15.96;88.36;96499.97;4998951;28;20120;-64
2021/09/28 02:07:25;;;;;;;19.00;15.07;;;17.10;81.40;;;15.96;87.52;96502.63;4967945;28;20569;-64
2021/09/28 02:09:51;;;;;;;18.52;14.80;;;17.10;81.30;;;15.95;87.93;96509.78;4995766;28;20034;-64
2021/09/28 02:12:17;;;;;;;16.45;14.65;;;17.10;81.20;;;15.94;87.70;96508.16;4993691;28;20073;-63
2021/09/28 02:14:42;;;;;;;17.92;14.73;;;17.10;81.20;;;15.95;87.75;96508.97;4994413;28;20121;-63
2021/09/28 02:17:08;;;;;;;19.05;14.80;;;17.10;81.20;;;15.91;88.48;96501.44;4996431;28;20053;-64
2021/09/28 02:19:34;;;;;;;17.65;15.10;;;17.10;81.20;;;15.91;87.59;96509.41;4978861;28;20030;-64
2021/09/28 02:22:00;;;;;;;19.23;15.50;;;17.10;81.40;;;15.90;87.46;96505.13;4988858;28;20054;-64
2021/09/28 02:24:25;;;;;;;24.50;21.52;;;17.10;81.30;;;15.89;88.58;96511.44;5004907;28;20030;-64
2021/09/28 02:26:51;;;;;;;26.27;21.88;;;17.10;81.50;;;15.87;87.88;96513.50;5004857;28;20054;-64
2021/09/28 02:29:17;;;;;;;22.30;17.38;;;17.10;81.60;;;15.87;88.53;96518.00;4990062;28;20059;-64
2021/09/28 02:31:43;;;;;;;23.35;19.92;;;17.10;81.50;;;15.83;88.84;96520.22;5006081;28;20077;-63
2021/09/28 02:34:10;;;;;;;29.38;26.13;;;17.00;81.70;;;15.84;88.88;96513.94;5006764;28;20450;-63
2021/09/28 02:36:37;;;;;;;20.38;16.42;;;17.10;81.50;;;15.82;88.90;96505.34;4993409;28;20041;-64
2021/09/28 02:39:08;;;;;;;17.83;14.98;;;17.10;81.50;;;15.79;88.88;96503.13;4991601;28;20085;-64
2021/09/28 02:41:34;;;;;;;20.02;14.98;;;17.00;81.40;;;15.78;88.63;96504.13;4992184;28;20433;-62
2021/09/28 02:44:00;;;;;;;16.20;14.32;;;17.00;81.40;;;15.75;89.02;96507.22;4989663;28;20080;-61
2021/09/28 02:46:27;;;;;;;18.67;15.52;;;16.90;81.40;;;15.74;88.16;96508.25;4989191;28;20387;-66
2021/09/28 02:48:53;;;;;;;15.88;14.18;;;16.90;81.50;;;15.71;87.86;96505.19;4993027;28;20059;-65
2021/09/28 02:51:19;;;;;;;16.67;14.45;;;16.90;81.50;;;15.70;87.99;96511.53;4994147;28;20038;-69
2021/09/28 02:53:45;;;;;;;16.27;14.40;;;16.90;81.60;;;15.65;88.77;96509.53;4993364;28;20038;-63
2021/09/28 02:56:10;;;;;;;18.27;14.95;;;16.80;81.70;;;15.62;88.37;96515.25;5002085;28;20485;-63
2021/09/28 02:58:36;;;;;;;18.73;15.15;;;16.80;81.60;;;15.57;89.06;96518.47;5012569;28;20117;-63
2021/09/28 03:01:02;;;;;;;20.85;14.90;;;16.80;81.70;;;15.55;87.90;96525.81;4994941;28;20105;-63
2021/09/28 03:03:28;;;;;;;22.90;17.58;;;16.80;81.70;;;15.52;88.61;96520.13;4994545;28;20065;-63
2021/09/28 03:05:54;;;;;;;32.40;25.92;;;16.70;81.70;;;15.51;88.93;96523.81;5011677;28;20390;-63
2021/09/28 03:08:20;;;;;;;24.73;22.10;;;16.70;82.00;;;15.49;88.78;96524.03;5011341;28;20026;-63
2021/09/28 03:10:45;;;;;;;18.90;16.95;;;16.70;82.20;;;15.49;88.77;96529.31;4995023;28;20058;-63
2021/09/28 03:13:12;;;;;;;22.08;15.73;;;16.70;82.30;;;15.47;89.09;96522.59;4990926;28;20034;-63
2021/09/28 03:15:38;;;;;;;16.77;14.90;;;16.70;82.40;;;15.47;90.17;96522.59;4975309;28;20026;-63
2021/09/28 03:18:04;;;;;;;25.17;19.85;;;16.70;82.40;;;15.46;89.12;96516.50;5008906;28;20045;-63
2021/09/28 03:20:29;;;;;;;20.90;18.02;;;16.70;82.40;;;15.46;90.28;96520.97;4994821;28;20022;-63
2021/09/28 03:22:55;;;;;;;31.55;24.58;;;16.70;82.20;;;15.46;89.96;96520.97;5009987;28;20555;-63
2021/09/28 03:25:21;;;;;;;26.65;21.15;;;16.70;82.20;;;15.46;89.30;96518.31;5010726;28;20537;-63
2021/09/28 03:27:47;;;;;;;23.63;20.40;;;16.80;82.20;;;15.44;89.28;96515.88;4992939;28;20532;-63
2021/09/28 03:30:12;;;;;;;29.85;24.95;;;16.70;82.10;;;15.46;89.62;96526.28;5017611;28;20563;-64
2021/09/28 03:32:38;;;;;;;38.58;33.70;;;16.80;82.10;;;15.46;89.01;96519.13;5017004;28;20121;-64
2021/09/28 03:35:09;;;;;;;24.30;21.35;;;16.70;82.00;;;15.43;89.23;96522.22;4994793;28;20180;-64
2021/09/28 03:37:36;;;;;;;;;;;16.70;81.90;;;15.41;90.60;96528.75;5010987;28;20406;-63
2021/09/28 03:40:04;;;;;;;21.80;15.98;;;16.70;81.80;;;15.36;90.13;96531.19;5009707;28;19956;-62
2021/09/28 03:42:30;;;;;;;18.90;15.95;;;16.50;81.80;;;15.30;90.08;96541.59;5013211;28;20029;-63
2021/09/28 03:44:56;;;;;;;19.08;15.77;;;16.50;82.10;;;15.26;89.18;96527.16;5005637;28;20645;-62
2021/09/28 03:47:22;;;;;;;20.73;16.85;;;16.50;82.20;;;15.24;89.42;96534.50;4977495;28;20057;-61
2021/09/28 03:49:47;;;;;;;22.67;16.88;;;16.40;82.30;;;15.20;88.40;96538.59;4993694;28;20414;-69
2021/09/28 03:52:13;;;;;;;23.55;18.23;;;16.40;82.30;;;15.15;89.26;96548.97;5002107;28;20440;-65
2021/09/28 03:54:39;;;;;;;21.05;16.70;;;16.40;82.40;;;15.15;88.82;96545.50;5033232;28;20657;-65
2021/09/28 03:57:05;;;;;;;23.15;18.90;;;16.40;82.40;;;15.12;90.15;96546.72;5030819;28;20034;-66
2021/09/28 03:59:30;;;;;;;27.17;21.98;;;16.40;82.30;;;15.12;89.13;96551.22;5009779;28;20500;-66
2021/09/28 04:01:56;;;;;;;18.83;15.75;;;16.50;82.40;;;15.12;89.14;96553.88;4990712;28;20041;-66
2021/09/28 04:04:22;;;;;;;17.88;14.55;;;16.40;82.10;;;15.09;90.02;96555.09;4975284;28;20034;-66
2021/09/28 04:06:47;;;;;;;17.92;15.27;;;16.40;82.10;;;15.07;89.21;96559.78;4977872;28;20046;-66
2021/09/28 04:09:13;;;;;;;21.10;15.40;;;16.40;81.90;;;15.07;90.05;96559.78;5010312;28;20022;-67
2021/09/28 04:11:40;;;;;;;19.83;14.95;;;16.40;82.00;;;15.06;89.30;96563.47;5010385;28;20042;-66
2021/09/28 04:14:07;;;;;;;17.85;14.57;;;16.30;81.90;;;15.05;89.96;96561.03;5010501;28;20193;-66
2021/09/28 04:16:33;;;;;;;17.83;13.90;;;16.20;82.00;;;15.04;89.81;96570.00;4994460;28;20411;-66
2021/09/28 04:18:58;;;;;;;17.70;13.90;;;16.30;82.00;;;15.00;89.91;96572.25;5010368;28;20041;-66
2021/09/28 04:21:26;;;;;;;18.35;14.45;;;16.30;82.00;;;14.99;89.68;96578.56;5010107;28;20507;-67
2021/09/28 04:23:52;;;;;;;19.67;14.48;;;16.20;82.20;;;14.97;90.16;96580.59;5004532;28;20451;-66
2021/09/28 04:26:18;;;;;;;18.02;14.35;;;16.20;82.20;;;14.97;90.31;96575.31;4997335;28;20060;-66
2021/09/28 04:28:44;;;;;;;18.63;13.73;;;16.20;82.30;;;14.96;90.09;96584.28;5029887;28;20118;-66
2021/09/28 04:31:12;;;;;;;17.52;14.05;;;16.10;82.50;;;14.95;88.81;96590.59;4997252;28;20045;-66
2021/09/28 04:33:38;;;;;;;15.55;13.73;;;16.10;82.60;;;14.93;90.21;96589.94;4999842;28;20049;-66
2021/09/28 04:36:04;;;;;;;22.80;13.95;;;16.20;82.50;;;14.93;90.11;96595.25;4993787;28;20570;-66
2021/09/28 04:38:29;;;;;;;18.55;14.35;;;16.10;82.70;;;14.92;90.12;96599.72;5010361;28;20026;-66
2021/09/28 04:40:55;;;;;;;17.20;14.38;;;16.10;82.80;;;14.91;90.34;96597.28;4999290;28;20157;-67
2021/09/28 04:43:21;;;;;;;17.13;14.57;;;16.20;82.90;;;14.91;90.69;96602.59;5019261;28;20054;-66
2021/09/28 04:45:47;;;;;;;16.30;13.43;;;16.10;83.20;;;14.92;91.33;96601.56;5030708;28;20108;-66
2021/09/28 04:48:13;;;;;;;16.38;13.85;;;16.20;82.80;;;14.92;90.97;96599.72;5013303;28;20029;-67
2021/09/28 04:50:38;;;;;;;16.75;13.77;;;16.10;83.20;;;14.93;90.80;96605.84;5013470;28;20199;-66
2021/09/28 04:53:04;;;;;;;16.92;13.10;;;16.20;82.80;;;14.94;90.66;96602.19;5005915;28;20507;-66
2021/09/28 04:55:30;;;;;;;14.75;12.82;;;16.20;82.80;;;14.93;90.87;96606.66;5009394;28;20045;-66
2021/09/28 04:57:56;;;;;;;17.17;13.18;;;16.20;82.90;;;14.94;90.94;96604.84;5009065;28;20453;-66
2021/09/28 05:00:21;;;;;;;16.80;13.95;;;16.10;83.20;;;14.93;90.42;96608.50;4976732;28;20569;-66
2021/09/28 05:02:47;;;;;;;15.00;13.18;;;16.10;83.30;;;14.95;91.60;96617.06;5009478;28;20053;-66
2021/09/28 05:05:13;;;;;;;15.35;12.07;;;16.20;83.20;;;14.96;90.34;96616.06;5009768;28;20054;-66
2021/09/28 05:07:38;;;;;;;13.82;11.77;;;16.20;83.10;;;14.96;91.45;96613.41;5009373;28;20104;-67
2021/09/28 05:10:05;;;;;;;14.25;11.55;;;16.20;83.10;;;14.99;90.56;96618.28;4992895;28;20092;-67
2021/09/28 05:12:31;;;;;;;15.73;11.85;;;16.30;83.00;;;15.01;91.32;96616.25;4992939;28;20100;-67
2021/09/28 05:14:57;;;;;;;13.50;11.90;;;16.30;83.10;;;15.01;90.94;96610.97;4992904;28;20522;-67
2021/09/28 05:17:24;;;;;;;15.57;12.90;;;16.30;83.00;;;15.04;91.85;96615.03;4992869;28;20040;-68
2021/09/28 05:19:49;;;;;;;18.65;14.80;;;16.40;83.10;;;15.07;91.41;96619.91;5012476;28;20045;-67
2021/09/28 05:22:15;;;;;;;10.93;9.23;;;16.40;83.10;;;15.08;91.49;96621.53;4996275;28;20469;-67
2021/09/28 05:24:41;;;;;;;11.38;9.52;;;16.30;82.80;;;15.09;91.81;96625.81;5017937;28;20065;-67
2021/09/28 05:27:07;;;;;;;9.02;7.97;;;16.40;82.70;;;15.11;90.25;96629.91;5009334;28;20466;-67
2021/09/28 05:29:34;;;;;;;7.40;5.75;;;16.40;82.40;;;15.13;90.37;96632.34;4992268;28;20414;-67
2021/09/28 05:32:00;;;;;;;5.82;3.80;;;16.40;81.70;;;15.13;89.69;96633.16;4977074;28;20065;-67
2021/09/28 05:34:26;;;;;;;3.92;3.42;;;16.40;81.10;;;15.14;88.94;96629.47;4992249;28;20027;-67
2021/09/28 05:36:52;;;;;;;3.38;2.72;;;16.40;81.10;;;15.14;88.38;96624.19;4976644;28;20529;-66
2021/09/28 05:39:19;;;;;;;3.35;2.60;;;16.40;80.50;;;15.14;89.05;96624.19;4992594;28;20033;-67
2021/09/28 05:41:44;;;;;;;3.67;2.80;;;16.40;80.70;;;15.17;88.74;96629.09;4972922;28;20546;-67
2021/09/28 05:44:10;;;;;;;4.43;3.22;;;16.50;80.40;;;15.20;88.58;96639.28;4964661;28;20041;-67
2021/09/28 05:46:37;;;;;;;3.50;2.72;;;16.50;80.60;;;15.23;88.43;96632.75;4976628;28;20582;-66
2021/09/28 05:49:03;;;;;;;7.00;3.10;;;16.50;80.10;;;15.24;87.61;96650.28;4976171;28;20041;-67
2021/09/28 05:51:29;;;;;;;4.88;2.63;;;16.50;80.30;;;15.25;88.14;96644.78;4976085;28;20517;-67
2021/09/28 05:53:59;;;;;;;4.85;2.90;;;16.50;80.60;;;15.27;88.17;96656.00;4960054;28;20026;-66
2021/09/28 05:56:24;;;;;;;4.00;2.80;;;16.60;80.40;;;15.28;88.72;96657.63;4961759;28;20451;-67
2021/09/28 05:58:50;;;;;;;4.13;2.92;;;16.60;80.00;;;15.26;88.48;96658.84;5008455;28;20026;-66
2021/09/28 06:01:16;;;;;;;4.05;3.05;;;16.50;80.50;;;15.27;88.42;96668.44;4976373;28;20062;-66
2021/09/28 06:03:42;;;;;;;4.90;2.85;;;16.60;80.80;;;15.25;88.57;96673.13;4975720;28;20041;-67
2021/09/28 06:06:07;;;;;;;3.38;2.83;;;16.50;81.00;;;15.22;87.57;96673.53;4992275;28;20034;-67
2021/09/28 06:08:34;;;;;;;3.47;2.70;;;16.50;81.10;;;15.22;88.09;96674.34;5008772;28;20440;-69
2021/09/28 06:11:00;;;;;;;4.82;3.03;;;16.50;81.00;;;15.20;87.98;96665.78;4959811;28;20511;-67
2021/09/28 06:13:26;;;;;;;3.58;3.00;;;16.50;81.20;;;15.17;88.64;96676.81;4975705;28;20034;-67
2021/09/28 06:15:53;;;;;;;4.47;2.65;;;16.40;81.50;;;15.16;88.57;96679.63;4972594;28;20037;-67
2021/09/28 06:18:20;;;;;;;3.05;2.60;;;16.50;81.40;;;15.17;89.25;96679.44;4972975;28;20022;-67
2021/09/28 06:20:46;;;;;;;4.03;2.80;;;16.50;81.30;;;15.16;89.02;96684.94;4958131;28;20026;-67
2021/09/28 06:23:12;;;;;;;3.70;2.22;;;16.50;81.00;;;15.15;89.15;96684.09;4979615;28;20030;-66
2021/09/28 06:25:38;;;;;;;3.55;1.90;;;16.40;80.90;;;15.14;88.55;96682.47;5004762;28;20141;-67
2021/09/28 06:28:04;;;;;;;2.53;1.20;;;16.40;80.90;;;15.10;88.36;96689.22;4979186;28;20800;-67
2021/09/28 06:30:31;;;;;;;2.60;1.20;;;16.30;80.30;;;15.05;87.09;96693.50;4974098;28;20046;-67
2021/09/28 06:32:56;;;;;;;2.53;1.48;;;16.20;80.10;;;15.00;86.76;96680.84;4972676;28;20076;-66
2021/09/28 06:35:24;;;;;;;1.65;0.63;;;16.10;79.50;;;14.97;85.91;96694.50;4960883;28;20507;-67
2021/09/28 06:37:50;;;;;;;0.70;0.50;;;16.10;79.20;;;14.95;85.68;96688.59;4987949;28;20041;-66
2021/09/28 06:40:16;;;;;;;0.80;0.40;;;16.10;78.60;;;14.91;85.57;96695.28;4991789;28;20026;-66
2021/09/28 06:42:41;;;;;;;0.57;0.38;;;16.00;78.40;;;14.88;85.44;96695.69;4975841;28;20092;-67
2021/09/28 06:45:07;;;;;;;1.08;0.47;;;16.00;78.90;;;14.85;85.07;96704.06;4975617;28;20054;-66
2021/09/28 06:47:34;;;;;;;1.73;0.50;;;16.00;78.40;;;14.87;85.50;96699.38;5008130;28;20030;-67
2021/09/28 06:49:59;;;;;;;0.40;0.40;;;16.20;78.70;;;14.84;85.73;96705.88;4991124;28;20525;-66
2021/09/28 06:52:25;;;;;;;1.17;0.50;;;16.00;78.60;;;14.85;84.42;96704.06;4975953;28;20053;-66
2021/09/28 06:54:51;;;;;;;0.75;0.40;;;16.10;78.80;;;14.83;85.34;96709.56;4999538;28;20148;-66
2021/09/28 06:57:17;;;;;;;1.50;0.60;;;16.20;78.70;;;14.82;85.16;96709.75;5011697;28;20037;-67
2021/09/28 06:59:42;;;;;;;0.80;0.52;;;16.00;79.10;;;14.82;86.09;96709.75;5010756;28;20052;-66
2021/09/28 07:02:08;;;;;;;1.60;0.70;;;16.10;79.40;;;14.80;86.50;96706.50;5022676;28;20050;-67
2021/09/28 07:04:34;;;;;;;3.33;0.60;;;16.10;79.20;;;14.81;86.41;96702.81;4991448;28;20472;-67
2021/09/28 07:07:01;;;;;;;1.33;0.75;;;16.10;79.00;;;14.78;85.17;96708.53;4991604;28;20596;-67
2021/09/28 07:09:28;;;;;;;0.65;0.60;;;16.00;78.80;;;14.77;84.84;96701.59;4991492;28;20038;-67
2021/09/28 07:11:53;;;;;;;0.88;0.63;;;16.00;78.40;;;14.76;85.88;96703.44;4991814;28;20022;-66
2021/09/28 07:14:19;;;;;;;1.63;0.80;;;16.10;78.50;;;14.75;85.36;96704.44;4991893;28;20053;-67
2021/09/28 07:16:45;;;;;;;0.65;0.50;;;16.00;78.50;;;14.79;84.59;96710.16;5008140;28;20026;-67
2021/09/28 07:19:11;;;;;;;0.73;0.47;;;16.10;78.00;;;14.84;85.73;96707.72;4991306;28;20037;-67
2021/09/28 07:21:37;;;;;;;1.13;0.60;;;16.30;77.80;;;14.88;84.44;96703.66;5008309;28;20030;-66
2021/09/28 07:24:04;;;;;;;1.20;0.43;;;16.20;77.70;;;14.91;85.07;96708.53;5012934;28;20037;-67
2021/09/28 07:26:30;;;;;;;1.95;0.60;;;16.30;77.60;;;14.96;84.70;96712.25;4995742;28;20034;-66
2021/09/28 07:28:56;;;;;;;1.63;0.60;;;16.40;77.50;;;15.00;83.85;96715.28;5013019;28;20077;-66
2021/09/28 07:31:21;;;;;;;1.35;0.63;;;16.50;77.30;;;15.04;84.54;96721.81;5011396;28;20050;-66
2021/09/28 07:33:47;;;;;;;1.70;0.70;;;16.40;77.20;;;15.06;84.91;96717.13;4978732;28;20145;-66
2021/09/28 07:36:13;;;;;;;2.00;0.73;;;16.40;77.00;;;15.07;84.52;96716.13;4995061;28;20061;-66
2021/09/28 07:38:40;;;;;;;1.08;0.70;;;16.40;77.00;;;15.10;83.34;96718.34;4995322;28;20134;-66
2021/09/28 07:41:06;;;;;;;2.33;0.75;;;16.50;76.70;;;15.11;83.10;96722.63;4995084;28;20034;-66
2021/09/28 07:43:32;;;;;;;0.95;0.55;;;16.50;76.50;;;15.11;83.98;96730.59;5010704;28;20029;-67
2021/09/28 07:45:59;;;;;;;1.85;0.88;;;16.60;76.40;;;15.13;82.93;96723.25;4978530;28;20090;-67
2021/09/28 07:48:25;;;;;;;1.00;0.63;;;16.50;76.20;;;15.12;82.61;96729.56;5011539;28;20044;-67
2021/09/28 07:50:50;;;;;;;0.60;0.60;;;16.30;76.00;;;15.10;83.20;96730.78;4980790;28;20504;-67
2021/09/28 07:53:16;;;;;;;1.05;0.65;;;16.40;76.20;;;15.12;83.43;96736.69;4975567;28;20031;-66
2021/09/28 07:55:42;;;;;;;2.13;0.80;;;16.50;76.00;;;15.10;82.05;96734.25;4942987;28;20694;-67
2021/09/28 07:58:08;;;;;;;2.50;0.70;;;16.30;76.10;;;15.08;82.39;96741.59;5001301;28;20154;-67
2021/09/28 08:00:33;;;;;;;1.70;0.68;;;16.40;76.10;;;15.07;82.19;96733.84;4993953;28;20392;-67
2021/09/28 08:02:59;;;;;;;6.93;0.95;;;16.20;76.30;;;15.01;83.07;96730.19;4994597;28;20534;-67
2021/09/28 08:05:25;;;;;;;2.20;0.90;;;16.30;76.40;;;14.99;83.33;96738.31;4978205;28;20034;-67
2021/09/28 08:07:51;;;;;;;1.30;0.68;;;16.30;76.30;;;15.00;82.87;96739.97;4994680;28;20029;-67
2021/09/28 08:10:17;;;;;;;3.08;1.00;;;16.40;76.40;;;15.01;82.33;96740.78;5010596;28;20042;-67
2021/09/28 08:12:43;;;;;;;1.50;0.80;;;16.50;76.40;;;15.05;83.12;96736.69;5011893;28;20034;-67
2021/09/28 08:15:09;;;;;;;2.08;1.15;;;16.50;76.30;;;15.09;82.65;96745.88;4994480;28;20030;-67
2021/09/28 08:17:34;;;;;;;1.20;1.10;;;16.60;76.40;;;15.08;83.27;96741.59;4977774;28;20526;-67
2021/09/28 08:20:00;;;;;;;1.60;1.10;;;16.50;75.90;;;15.09;83.04;96743.22;4994059;28;20129;-66
2021/09/28 08:22:26;;;;;;;2.13;1.27;;;16.50;76.40;;;15.09;83.19;96735.28;4962047;28;20088;-67
2021/09/28 08:24:55;;;;;;;2.53;1.50;;;16.60;75.90;;;15.08;82.37;96740.78;4961992;28;20524;-66
2021/09/28 08:30:08;;;;;;;2.42;1.92;;;16.50;76.50;;;15.11;83.64;96740.38;5003996;28;20117;-67
2021/09/28 08:32:33;;;;;;;3.28;1.90;;;16.60;76.00;;;15.11;81.58;96745.66;5013867;28;20038;-67
2021/09/28 08:34:59;;;;;;;1.90;1.65;;;16.50;74.50;;;15.12;82.97;96742.81;5030047;28;20182;-65
2021/09/28 08:37:26;;;;;;;2.45;1.80;;;16.60;74.60;;;15.15;82.06;96734.47;5029629;28;20045;-65
2021/09/28 08:39:55;;;;;;;2.65;2.00;;;16.80;74.30;;;15.20;81.60;96732.03;5013140;28;20030;-65
2021/09/28 08:42:21;;;;;;;3.85;1.80;;;16.90;73.10;;;15.28;81.52;96737.13;5029811;28;20091;-65
2021/09/28 08:44:47;;;;;;;2.60;2.17;;;17.00;72.80;;;15.36;80.55;96735.28;5013630;28;20047;-65
2021/09/28 08:47:12;;;;;;;2.97;2.17;;;17.20;72.50;;;15.42;81.41;96734.50;5013376;28;20447;-65
2021/09/28 08:49:40;;;;;;;2.28;1.83;;;17.10;72.90;;;15.50;80.76;96731.63;5029161;28;20505;-65
2021/09/28 08:52:06;;;;;;;3.30;1.85;;;17.30;72.90;;;15.57;80.28;96740.41;5007653;28;20018;-65
2021/09/28 08:54:32;;;;;;;3.85;2.30;;;17.20;72.50;;;15.59;80.35;96735.75;5010317;28;20033;-65
2021/09/28 08:56:58;;;;;;;2.80;1.95;;;17.10;72.50;;;15.58;80.17;96742.03;4961476;28;20034;-65
2021/09/28 08:59:40;;;;;;;3.55;2.67;;;17.10;72.70;;;15.57;79.93;96738.56;4989990;28;20487;-65
2021/09/28 09:02:08;;;;;;;3.60;2.78;;;17.00;71.50;;;15.55;77.84;96734.50;5003933;28;20034;-65
2021/09/28 09:04:35;;;;;;;4.65;2.90;;;17.00;70.40;;;15.56;78.16;96734.28;4958852;28;20458;-65
2021/09/28 09:07:19;;;;;;;4.22;3.05;;;17.10;70.30;;;15.64;76.39;96732.50;4990097;28;20041;-65
2021/09/28 09:09:48;;;;;;;8.35;3.65;;;17.10;70.20;;;15.65;76.47;96734.13;4967292;28;20092;-65
2021/09/28 09:12:27;;;;;;;7.35;4.15;;;17.10;69.60;;;15.64;75.79;96737.81;4977697;28;20037;-65
2021/09/28 09:14:54;;;;;;;3.90;3.25;;;17.10;69.40;;;15.63;76.59;96739.63;4978859;28;20038;-65
2021/09/28 09:17:24;;;;;;;7.55;4.28;;;17.10;69.90;;;15.67;77.04;96740.03;4977433;28;20494;-65
2021/09/28 09:19:50;;;;;;;5.53;3.88;;;17.20;69.90;;;15.67;76.23;96735.56;4992710;28;20037;-65
2021/09/28 09:22:16;;;;;;;7.25;3.88;;;17.30;69.20;;;15.72;77.35;96733.09;5016632;28;20128;-65
2021/09/28 09:24:49;;;;;;;7.57;5.22;;;17.50;69.10;;;15.80;76.10;96724.91;5011647;28;20099;-65
2021/09/28 09:27:19;;;;;;;7.43;4.57;;;17.50;69.30;;;15.90;76.94;96727.97;5014251;28;20033;-66
2021/09/28 09:29:45;;;;;;;6.90;4.57;;;17.80;69.00;;;16.09;76.72;96725.50;4990075;28;20053;-65
2021/09/28 09:32:11;;;;;;;5.75;4.07;;;18.10;68.30;;;16.30;76.64;96719.91;5012730;28;20405;-65
2021/09/28 09:34:37;;;;;;;6.57;4.60;;;18.60;67.00;;;16.59;75.87;96712.44;5006369;28;20429;-65
2021/09/28 09:37:05;;;;;;;8.77;4.35;;;19.00;64.30;;;16.85;75.54;96715.00;5048672;28;20060;-66
2021/09/28 09:39:52;;;;;;;5.53;4.93;;;19.30;64.30;;;17.03;72.66;96709.78;5000381;28;20097;-66
2021/09/28 09:42:19;;;;;;;5.90;4.63;;;19.20;63.20;;;17.11;73.53;96712.16;5009053;28;20033;-65
2021/09/28 09:44:46;;;;;;;6.90;5.05;;;19.10;63.10;;;17.15;73.41;96713.34;4965538;28;20113;-65
2021/09/28 09:47:30;;;;;;;6.28;4.93;;;19.00;63.40;;;17.20;71.29;96706.56;4957788;28;20045;-66
2021/09/28 09:50:18;;;;;;;6.60;4.65;;;19.10;63.40;;;17.30;71.68;96704.28;4989212;28;20105;-65
2021/09/28 09:52:56;;;;;;;6.10;4.15;;;19.30;63.40;;;17.45;70.83;96712.75;4960884;28;20122;-65
2021/09/28 09:55:30;;;;;;;9.00;5.43;;;19.60;62.30;;;17.64;71.62;96708.28;5010008;28;20042;-66
2021/09/28 09:57:55;;;;;;;6.00;4.28;;;19.90;61.10;;;17.79;71.28;96697.31;5012081;28;20029;-65
2021/09/28 10:00:22;;;;;;;7.45;4.47;;;20.10;59.30;;;17.93;71.13;96698.84;5012018;28;20060;-66
2021/09/28 10:02:48;;;;;;;6.18;4.47;;;20.20;59.60;;;18.02;70.50;96694.84;5012296;28;20033;-66
2021/09/28 10:05:14;;;;;;;5.97;3.65;;;20.20;59.20;;;18.10;69.23;96688.41;4995823;28;20037;-66
2021/09/28 10:07:39;;;;;;;6.97;4.53;;;20.40;58.40;;;18.17;69.63;96689.16;4995312;28;20383;-66
2021/09/28 10:10:10;;;;;;;5.35;4.03;;;20.40;58.00;;;18.21;69.09;96685.00;5005662;28;20694;-65
2021/09/28 10:12:36;;;;;;;;;;;20.10;59.20;;;18.22;67.68;96682.13;5009062;28;20453;-65